Time;durP1;ratioP1;P1;durP2;ratioP2;P2;SDS_P1;SDS_P2;PMS_P1;PMS_P2;Temp;Humidity;BMP_temperature;BMP_pressure;BME280_temperature;BME280_humidity;BME280_pressure;Samples;Min_cycle;Max_cycle;Signal;HPM_P1;HPM_P2
2023/03/23 00:01:36;;;;;;;35.40;22.90;;;;;;;9.38;79.45;99773.70;102487;278;96937;-58
2023/03/23 00:04:13;;;;;;;33.40;23.40;;;;;;;9.38;79.51;99768.19;102551;278;97846;-56
2023/03/23 00:06:52;;;;;;;32.10;23.60;;;;;;;9.40;79.52;99767.41;102522;278;120652;-55
2023/03/23 00:09:27;;;;;;;31.40;23.50;;;;;;;9.39;79.42;99766.41;102531;278;106007;-58
2023/03/23 00:12:04;;;;;;;;;;;;;;;9.39;79.39;99764.41;102512;278;114377;-58
2023/03/23 00:14:42;;;;;;;32.80;22.10;;;;;;;9.39;79.45;99757.44;102497;278;97125;-56
2023/03/23 00:17:16;;;;;;;36.70;24.90;;;;;;;9.39;79.50;99760.36;102569;278;97826;-57
2023/03/23 00:20:00;;;;;;;34.60;23.20;;;;;;;9.44;79.64;99762.59;102536;278;119667;-61
2023/03/23 00:22:37;;;;;;;35.10;24.10;;;;;;;9.47;79.82;99759.33;102525;278;105404;-59
2023/03/23 00:25:13;;;;;;;32.60;22.40;;;;;;;9.44;79.59;99756.23;102539;278;114945;-54
2023/03/23 00:27:54;;;;;;;33.20;23.30;;;;;;;9.38;79.55;99756.73;102547;278;96873;-54
2023/03/23 00:30:33;;;;;;;33.00;23.40;;;;;;;9.36;79.57;99755.70;102506;278;98057;-55
2023/03/23 00:33:08;;;;;;;33.60;23.10;;;;;;;9.34;79.54;99752.52;102521;278;120739;-56
2023/03/23 00:35:45;;;;;;;31.00;22.70;;;;;;;9.35;79.45;99748.63;102563;278;106110;-54
2023/03/23 00:38:23;;;;;;;33.10;22.30;;;;;;;9.39;79.52;99748.66;102495;278;114609;-55
2023/03/23 00:41:02;;;;;;;34.00;23.00;;;;;;;9.41;79.52;99743.40;102526;278;95427;-56
2023/03/23 00:43:38;;;;;;;32.70;22.90;;;;;;;9.47;79.69;99740.95;102543;278;98428;-55
2023/03/23 00:46:17;;;;;;;33.70;23.40;;;;;;;9.47;79.46;99745.81;102552;278;120939;-55
2023/03/23 00:48:56;;;;;;;36.30;25.30;;;;;;;9.47;79.59;99743.63;102502;278;104522;-55
2023/03/23 00:51:39;;;;;;;33.60;23.70;;;;;;;9.45;79.72;99743.02;102504;278;115582;-55
2023/03/23 00:54:16;;;;;;;32.40;22.10;;;;;;;9.44;79.64;99743.13;102506;278;96862;-54
2023/03/23 00:56:58;;;;;;;33.50;23.50;;;;;;;9.47;79.52;99741.98;102510;278;96623;-54
2023/03/23 00:59:37;;;;;;;32.70;22.80;;;;;;;9.46;79.55;99738.52;102535;278;119030;-55
2023/03/23 01:02:14;;;;;;;30.70;21.70;;;;;;;9.48;79.60;99733.29;102502;278;105573;-54
2023/03/23 01:04:54;;;;;;;34.80;22.20;;;;;;;9.52;79.53;99729.45;102525;278;115593;-54
2023/03/23 01:07:32;;;;;;;30.30;21.00;;;;;;;9.56;79.58;99728.30;102543;278;94876;-54
2023/03/23 01:10:12;;;;;;;31.20;23.00;;;;;;;9.59;79.49;99725.58;102542;267;98419;-60
2023/03/23 01:12:50;;;;;;;30.70;23.20;;;;;;;9.59;79.54;99721.40;102526;278;120314;-58
2023/03/23 01:15:25;;;;;;;28.90;21.60;;;;;;;9.60;79.41;99723.40;102547;278;105371;-54
2023/03/23 01:18:08;;;;;;;32.50;23.00;;;;;;;9.60;79.49;99731.56;102551;278;115089;-56
2023/03/23 01:20:54;;;;;;;28.20;21.40;;;;;;;9.59;79.37;99728.59;102403;278;96556;-61
2023/03/23 01:23:34;;;;;;;32.80;20.60;;;;;;;9.59;79.34;99728.91;102493;278;97848;-61
2023/03/23 01:26:12;;;;;;;30.40;22.10;;;;;;;9.59;79.40;99734.92;102575;278;120870;-55
2023/03/23 01:28:51;;;;;;;32.20;22.30;;;;;;;9.56;79.42;99732.17;102518;278;105380;-54
2023/03/23 01:31:36;;;;;;;30.80;21.70;;;;;;;9.60;79.50;99734.77;102527;278;113431;-55
2023/03/23 01:34:13;;;;;;;31.20;21.90;;;;;;;9.62;79.38;99739.67;102603;278;94715;-56
2023/03/23 01:36:50;;;;;;;30.40;22.40;;;;;;;9.61;79.36;99737.34;102574;278;98029;-55
2023/03/23 01:39:26;;;;;;;27.80;20.90;;;;;;;9.59;79.24;99730.77;102544;278;120889;-56
2023/03/23 01:42:00;;;;;;;33.70;21.40;;;;;;;9.57;79.31;99728.68;102526;278;105074;-56
2023/03/23 01:45:26;;;;;;;32.70;22.00;;;;;;;9.55;79.26;99726.08;102584;278;114492;-55
2023/03/23 01:48:18;;;;;;;28.90;19.90;;;;;;;9.52;79.30;99722.73;102391;278;97605;-55
2023/03/23 01:51:01;;;;;;;31.00;21.30;;;;;;;9.52;79.33;99719.99;102587;278;96539;-54
2023/03/23 01:53:48;;;;;;;30.70;21.40;;;;;;;9.52;79.37;99716.05;102492;278;119621;-55
2023/03/23 01:56:37;;;;;;;27.30;20.80;;;;;;;9.52;79.48;99712.69;102516;278;106084;-58
2023/03/23 01:59:18;;;;;;;29.40;20.90;;;;;;;9.51;79.34;99709.54;102507;278;114591;-55
2023/03/23 02:02:01;;;;;;;31.30;20.90;;;;;;;9.47;79.46;99709.72;102483;278;97383;-55
2023/03/23 02:04:42;;;;;;;29.00;20.60;;;;;;;9.46;79.42;99705.61;102557;278;98387;-60
2023/03/23 02:07:23;;;;;;;30.10;19.90;;;;;;;9.44;79.32;99702.44;102550;278;120457;-59
2023/03/23 02:10:03;;;;;;;28.80;20.70;;;;;;;9.39;79.42;99703.09;102571;278;105034;-59
2023/03/23 02:12:42;;;;;;;26.30;19.30;;;;;;;9.38;79.52;99699.14;102500;267;115143;-59
2023/03/23 02:15:18;;;;;;;30.70;20.70;;;;;;;9.35;79.40;99700.98;102512;278;95774;-55
2023/03/23 02:18:03;;;;;;;28.20;20.40;;;;;;;9.35;79.44;99699.90;102565;278;98472;-55
2023/03/23 02:21:11;;;;;;;30.20;20.20;;;;;;;9.36;79.57;99696.43;102537;278;121646;-59
2023/03/23 02:24:41;;;;;;;27.80;20.00;;;;;;;9.33;79.78;99697.45;102515;278;105721;-59
2023/03/23 02:27:32;;;;;;;28.60;18.80;;;;;;;9.26;79.72;99690.36;102390;278;114187;-59
2023/03/23 02:30:27;;;;;;;28.00;19.30;;;;;;;9.23;79.76;99689.83;102533;278;96592;-59
2023/03/23 02:33:51;;;;;;;25.10;18.60;;;;;;;9.16;79.76;99685.65;102509;278;96947;-60
2023/03/23 02:36:36;;;;;;;28.10;18.70;;;;;;;9.11;79.88;99694.82;102516;278;121896;-54
2023/03/23 02:39:22;;;;;;;23.70;17.50;;;;;;;9.11;79.89;99689.40;102513;278;104686;-56
2023/03/23 02:42:04;;;;;;;24.60;18.30;;;;;;;9.09;80.00;99687.52;102526;278;114388;-60
2023/03/23 02:45:00;;;;;;;24.80;17.90;;;;;;;9.13;80.00;99686.16;102498;278;95266;-58
2023/03/23 02:47:42;;;;;;;25.70;18.00;;;;;;;9.18;80.14;99694.71;102524;278;98247;-58
2023/03/23 02:50:25;;;;;;;26.90;17.60;;;;;;;9.22;80.30;99694.77;102534;278;120903;-53
2023/03/23 02:53:01;;;;;;;25.80;18.10;;;;;;;9.25;80.35;99692.55;102524;278;105503;-54
2023/03/23 02:55:36;;;;;;;22.90;17.50;;;;;;;9.24;80.30;99689.21;102588;278;113560;-54
2023/03/23 02:58:11;;;;;;;25.30;17.90;;;;;;;9.27;80.25;99691.61;102518;278;94153;-55
2023/03/23 03:00:49;;;;;;;24.90;16.20;;;;;;;9.28;80.29;99696.71;102552;278;97743;-60
2023/03/23 03:03:27;;;;;;;21.60;16.40;;;;;;;9.29;80.34;99697.26;102526;278;120933;-60
2023/03/23 03:06:19;;;;;;;24.60;17.00;;;;;;;9.31;80.41;99690.80;102556;278;104652;-54
2023/03/23 03:09:04;;;;;;;24.80;18.10;;;;;;;9.38;80.43;99686.27;102529;278;114212;-55
2023/03/23 03:11:41;;;;;;;22.50;16.70;;;;;;;9.42;80.34;99686.59;102528;278;93919;-59
2023/03/23 03:14:24;;;;;;;20.70;15.90;;;;;;;9.39;80.36;99691.27;102583;278;98420;-58
2023/03/23 03:17:05;;;;;;;22.30;16.50;;;;;;;9.35;80.35;99692.89;102500;278;121500;-58
2023/03/23 03:19:47;;;;;;;22.30;16.00;;;;;;;9.35;80.31;99694.22;102509;278;106209;-55
2023/03/23 03:22:29;;;;;;;22.20;16.30;;;;;;;9.30;80.37;99689.22;102377;280;116521;-55
2023/03/23 03:25:07;;;;;;;25.70;17.30;;;;;;;9.28;80.41;99692.23;102535;278;96415;-58
2023/03/23 03:27:52;;;;;;;23.70;16.90;;;;;;;9.28;80.44;99694.38;102510;278;96670;-58
2023/03/23 03:30:32;;;;;;;;;;;;;;;9.25;80.37;99696.23;102566;278;121520;-54
2023/03/23 03:33:08;;;;;;;23.40;17.10;;;;;;;9.25;80.46;99700.21;102504;278;104872;-54
2023/03/23 03:35:46;;;;;;;23.50;17.00;;;;;;;9.21;80.45;99702.27;102532;278;113521;-59
2023/03/23 03:38:21;;;;;;;26.50;16.60;;;;;;;9.14;80.59;99703.84;102539;278;92361;-59
2023/03/23 03:41:04;;;;;;;25.20;17.70;;;;;;;9.10;80.60;99707.90;102533;278;96602;-55
2023/03/23 03:43:40;;;;;;;22.70;16.30;;;;;;;9.07;80.68;99707.55;102518;278;121031;-54
2023/03/23 03:46:20;;;;;;;24.20;16.70;;;;;;;9.05;80.59;99706.79;102516;278;104192;-54
2023/03/23 03:49:05;;;;;;;25.60;16.10;;;;;;;8.96;80.59;99701.26;102547;278;115410;-58
2023/03/23 03:51:44;;;;;;;23.50;16.20;;;;;;;8.89;80.81;99694.17;102502;278;95123;-60
2023/03/23 03:54:33;;;;;;;25.80;16.90;;;;;;;8.88;80.77;99687.29;102562;278;97213;-55
2023/03/23 03:57:12;;;;;;;27.20;17.00;;;;;;;8.86;81.04;99683.58;102566;278;120249;-54
2023/03/23 03:59:52;;;;;;;22.20;16.40;;;;;;;8.88;81.06;99683.20;102559;278;105509;-60
2023/03/23 04:02:30;;;;;;;20.50;15.40;;;;;;;8.88;80.98;99676.92;102533;278;113159;-59
2023/03/23 04:05:05;;;;;;;20.90;15.30;;;;;;;8.87;81.06;99674.67;102551;278;92600;-55
2023/03/23 04:07:45;;;;;;;22.10;16.40;;;;;;;8.85;80.98;99678.21;102528;278;97325;-56
2023/03/23 04:10:23;;;;;;;22.70;16.20;;;;;;;8.76;80.88;99681.48;102480;278;120824;-58
2023/03/23 04:13:04;;;;;;;21.50;15.90;;;;;;;8.69;80.96;99681.03;102470;278;105805;-59
2023/03/23 04:15:40;;;;;;;22.40;15.90;;;;;;;8.69;81.14;99681.38;102555;278;115023;-58
2023/03/23 04:18:24;;;;;;;25.30;16.80;;;;;;;8.65;81.16;99685.44;102549;278;96958;-59
2023/03/23 04:21:07;;;;;;;21.20;14.90;;;;;;;8.62;81.18;99682.93;102545;278;96815;-58
2023/03/23 04:23:45;;;;;;;21.80;15.30;;;;;;;8.59;81.22;99682.15;102516;278;119504;-58
2023/03/23 04:26:22;;;;;;;19.60;14.00;;;;;;;8.54;81.27;99680.95;102526;278;105438;-59
2023/03/23 04:29:01;;;;;;;20.80;15.40;;;;;;;8.50;81.25;99680.02;102550;278;114422;-57
2023/03/23 04:31:45;;;;;;;23.50;16.70;;;;;;;8.49;81.26;99683.42;102532;278;94518;-54
2023/03/23 04:34:25;;;;;;;22.80;15.50;;;;;;;8.48;81.33;99682.67;102568;278;98009;-59
2023/03/23 04:37:03;;;;;;;21.00;16.10;;;;;;;8.45;81.40;99679.55;102541;278;121257;-55
2023/03/23 04:39:45;;;;;;;21.70;15.90;;;;;;;8.44;81.40;99680.45;102560;278;104153;-55
2023/03/23 04:42:25;;;;;;;23.20;15.50;;;;;;;8.43;81.31;99679.36;102470;278;114959;-54
2023/03/23 04:45:03;;;;;;;23.10;14.90;;;;;;;8.42;81.50;99677.32;102568;278;97338;-54
2023/03/23 04:47:41;;;;;;;22.80;14.70;;;;;;;8.41;81.49;99677.60;102532;278;98237;-54
2023/03/23 04:50:18;;;;;;;21.00;14.40;;;;;;;8.41;81.69;99672.05;102549;278;120655;-61
2023/03/23 04:52:57;;;;;;;20.80;14.40;;;;;;;8.47;81.81;99671.53;102572;278;104681;-60
2023/03/23 04:55:35;;;;;;;20.90;15.30;;;;;;;8.54;81.89;99672.91;102518;278;113610;-55
2023/03/23 04:58:24;;;;;;;24.30;14.90;;;;;;;8.62;81.91;99670.25;102495;278;96444;-54
2023/03/23 05:01:02;;;;;;;21.30;15.10;;;;;;;8.72;81.99;99671.42;102551;278;96963;-60
2023/03/23 05:03:36;;;;;;;22.40;15.50;;;;;;;8.82;81.87;99669.11;102510;278;119875;-60
2023/03/23 05:06:11;;;;;;;22.90;15.20;;;;;;;8.87;81.90;99667.75;102572;278;105821;-56
2023/03/23 05:08:51;;;;;;;21.20;14.70;;;;;;;8.95;81.80;99664.83;102565;278;114995;-55
2023/03/23 05:11:25;;;;;;;21.80;14.60;;;;;;;9.02;81.84;99665.09;102510;278;96303;-58
2023/03/23 05:14:00;;;;;;;20.70;14.20;;;;;;;9.10;81.56;99661.77;102537;278;97627;-56
2023/03/23 05:16:37;;;;;;;21.00;14.10;;;;;;;9.14;81.64;99658.33;102523;278;120008;-55
2023/03/23 05:19:12;;;;;;;20.20;15.30;;;;;;;9.22;81.65;99661.19;102515;278;105816;-59
2023/03/23 05:22:02;;;;;;;21.80;14.50;;;;;;;9.31;81.38;99663.55;102390;279;115480;-60
2023/03/23 05:24:37;;;;;;;23.00;15.30;;;;;;;9.41;81.38;99656.52;102572;278;93329;-59
2023/03/23 05:27:11;;;;;;;20.20;14.00;;;;;;;9.50;81.29;99651.02;102548;278;97910;-59
2023/03/23 05:29:48;;;;;;;24.00;15.50;;;;;;;9.56;81.15;99652.45;102518;278;120155;-59
2023/03/23 05:32:37;;;;;;;24.10;14.80;;;;;;;9.61;81.07;99656.82;102509;278;102981;-58
2023/03/23 05:35:13;;;;;;;21.70;14.60;;;;;;;9.67;81.04;99661.54;102387;280;115832;-55
2023/03/23 05:37:53;;;;;;;21.40;14.10;;;;;;;9.75;80.85;99660.60;102511;278;96019;-54
2023/03/23 05:40:30;;;;;;;20.30;14.30;;;;;;;9.81;80.72;99660.05;102541;278;97785;-60
2023/03/23 05:43:15;;;;;;;18.00;14.00;;;;;;;9.87;80.82;99663.72;102526;278;120893;-61
2023/03/23 05:45:53;;;;;;;21.50;14.80;;;;;;;9.99;80.74;99665.52;102525;278;104774;-60
2023/03/23 05:48:39;;;;;;;16.40;12.80;;;;;;;10.09;80.58;99666.11;102517;278;113719;-60
2023/03/23 05:51:16;;;;;;;17.30;12.80;;;;;;;10.17;80.46;99660.96;102545;278;93695;-60
2023/03/23 05:53:54;;;;;;;20.10;13.30;;;;;;;10.24;80.21;99663.89;102543;278;97155;-59
2023/03/23 05:56:31;;;;;;;19.30;13.70;;;;;;;10.35;80.15;99668.65;102515;278;120008;-59
2023/03/23 05:59:09;;;;;;;20.80;13.70;;;;;;;10.43;80.07;99668.20;102531;278;106038;-55
2023/03/23 06:01:45;;;;;;;18.40;13.00;;;;;;;10.58;79.77;99673.20;102530;278;114424;-54
2023/03/23 06:04:24;;;;;;;17.50;12.60;;;;;;;10.73;79.60;99676.02;102514;278;96173;-60
2023/03/23 06:06:59;;;;;;;17.70;12.30;;;;;;;10.90;79.46;99678.38;102498;278;98133;-60
2023/03/23 06:09:39;;;;;;;16.70;13.20;;;;;;;11.08;79.21;99672.95;102543;278;120046;-54
2023/03/23 06:12:19;;;;;;;20.30;13.30;;;;;;;11.25;79.05;99668.64;102537;278;105132;-55
2023/03/23 06:14:57;;;;;;;20.10;13.50;;;;;;;11.46;78.67;99666.76;102531;278;112473;-59
2023/03/23 06:17:34;;;;;;;17.30;12.80;;;;;;;11.67;78.37;99669.64;102542;278;93561;-59
2023/03/23 06:20:14;;;;;;;17.70;12.80;;;;;;;11.75;78.13;99670.89;102557;278;97654;-59
2023/03/23 06:22:48;;;;;;;17.30;12.00;;;;;;;11.80;77.77;99666.74;102559;278;119378;-58
2023/03/23 06:25:34;;;;;;;16.60;12.20;;;;;;;11.88;77.44;99661.58;102361;278;104324;-54
2023/03/23 06:28:09;;;;;;;17.90;12.20;;;;;;;12.04;77.26;99668.08;102500;278;115016;-56
2023/03/23 06:30:46;;;;;;;16.70;11.90;;;;;;;12.23;77.18;99673.14;102549;278;97191;-55
2023/03/23 06:33:23;;;;;;;15.00;11.30;;;;;;;12.57;76.72;99675.83;102504;278;97893;-54
2023/03/23 06:36:07;;;;;;;16.30;11.40;;;;;;;12.89;76.20;99676.94;102550;278;120183;-53
2023/03/23 06:38:46;;;;;;;14.60;11.30;;;;;;;13.06;75.96;99675.75;102486;278;106419;-54
2023/03/23 06:41:22;;;;;;;16.50;11.50;;;;;;;13.11;75.88;99677.35;102545;278;113257;-56
2023/03/23 06:43:58;;;;;;;16.50;11.60;;;;;;;13.26;75.48;99664.52;102504;278;94823;-55
2023/03/23 06:46:35;;;;;;;16.40;11.70;;;;;;;13.60;75.10;99661.10;102543;278;96941;-60
2023/03/23 06:49:12;;;;;;;16.60;11.20;;;;;;;13.91;74.45;99652.83;102531;278;120607;-59
2023/03/23 06:51:49;;;;;;;16.40;11.10;;;;;;;13.96;73.98;99651.99;102547;278;105770;-59
2023/03/23 06:54:27;;;;;;;13.50;11.20;;;;;;;13.83;73.67;99659.94;102508;278;114365;-54
2023/03/23 06:57:02;;;;;;;14.40;10.80;;;;;;;13.96;73.60;99661.52;102492;278;94896;-52
2023/03/23 06:59:39;;;;;;;13.80;10.50;;;;;;;14.20;72.97;99665.73;102563;278;97438;-58
2023/03/23 07:02:18;;;;;;;13.00;10.50;;;;;;;14.47;72.96;99666.92;102492;278;121379;-59
2023/03/23 07:04:53;;;;;;;14.40;10.50;;;;;;;14.84;72.82;99670.15;102566;278;103552;-59
2023/03/23 07:07:31;;;;;;;15.00;10.20;;;;;;;15.32;72.40;99671.63;102408;278;113942;-59
2023/03/23 07:10:11;;;;;;;13.40;10.10;;;;;;;16.05;71.32;99662.31;102567;278;93948;-59
2023/03/23 07:12:52;;;;;;;13.20;10.00;;;;;;;16.69;70.52;99667.83;102544;278;97289;-60
2023/03/23 07:15:31;;;;;;;;;;;;;;;17.12;69.00;99678.80;102539;278;119796;-59
2023/03/23 07:18:10;;;;;;;11.90;9.50;;;;;;;17.60;68.72;99672.55;102542;278;105687;-59
2023/03/23 07:20:59;;;;;;;14.60;9.70;;;;;;;17.73;67.80;99673.27;102550;278;115719;-56
2023/03/23 07:23:39;;;;;;;12.50;9.50;;;;;;;17.59;66.85;99679.02;102525;278;95585;-59
2023/03/23 07:26:15;;;;;;;14.30;9.20;;;;;;;17.48;66.21;99678.81;102570;278;97738;-60
2023/03/23 07:28:53;;;;;;;14.20;9.50;;;;;;;17.65;65.82;99676.48;102535;278;121510;-60
2023/03/23 07:31:30;;;;;;;15.00;9.50;;;;;;;18.30;66.12;99675.81;102503;278;105625;-56
2023/03/23 07:34:09;;;;;;;11.90;9.20;;;;;;;19.51;64.53;99675.05;102513;278;114831;-54
2023/03/23 07:36:57;;;;;;;12.50;9.10;;;;;;;20.80;62.42;99674.77;101952;278;572491;-55
2023/03/23 07:39:34;;;;;;;11.60;8.30;;;;;;;21.02;60.52;99676.94;102448;279;98222;-58
2023/03/23 07:42:12;;;;;;;11.30;7.50;;;;;;;21.24;60.30;99674.63;102483;278;121712;-58
2023/03/23 07:44:53;;;;;;;10.80;7.60;;;;;;;21.95;58.78;99671.40;102542;278;104832;-54
2023/03/23 07:47:33;;;;;;;11.80;8.30;;;;;;;22.02;57.84;99670.88;102498;278;112551;-55
2023/03/23 07:50:11;;;;;;;12.20;7.70;;;;;;;22.09;56.71;99674.09;102534;278;94023;-61
2023/03/23 07:52:45;;;;;;;9.60;7.70;;;;;;;22.27;56.07;99666.23;102553;278;97191;-61
2023/03/23 07:55:20;;;;;;;13.40;8.20;;;;;;;22.96;56.31;99663.18;102561;278;120229;-61
2023/03/23 07:58:01;;;;;;;10.10;8.20;;;;;;;24.27;54.24;99664.39;102577;278;105106;-60
2023/03/23 08:00:40;;;;;;;9.20;7.80;;;;;;;25.19;52.09;99655.20;102523;278;114738;-55
2023/03/23 08:03:18;;;;;;;13.70;7.70;;;;;;;25.01;51.57;99658.10;102395;280;95821;-56
2023/03/23 08:05:58;;;;;;;11.30;7.60;;;;;;;24.04;51.42;99659.27;102533;278;97764;-54
2023/03/23 08:08:40;;;;;;;11.30;8.10;;;;;;;23.18;50.77;99656.45;102518;278;120606;-55
2023/03/23 08:11:19;;;;;;;9.20;6.80;;;;;;;22.66;50.25;99655.48;102536;278;105765;-59
2023/03/23 08:13:57;;;;;;;7.60;6.80;;;;;;;22.53;50.34;99651.71;102546;267;113474;-56
2023/03/23 08:16:31;;;;;;;11.50;7.00;;;;;;;23.09;49.90;99643.97;102398;279;95218;-60
2023/03/23 08:19:08;;;;;;;8.90;6.90;;;;;;;23.61;49.35;99647.91;102561;278;96899;-59
2023/03/23 08:21:50;;;;;;;10.40;6.90;;;;;;;23.38;48.23;99643.15;102521;278;121201;-60
2023/03/23 08:24:26;;;;;;;8.90;7.20;;;;;;;22.35;47.90;99646.15;102600;278;104118;-60
2023/03/23 08:27:04;;;;;;;7.90;6.30;;;;;;;21.47;48.19;99645.17;102524;278;112064;-59
2023/03/23 08:29:45;;;;;;;10.50;6.70;;;;;;;20.76;49.28;99628.77;102566;278;93910;-56
2023/03/23 08:32:28;;;;;;;10.70;6.80;;;;;;;20.34;49.91;99620.92;102519;278;97247;-55
2023/03/23 08:35:09;;;;;;;9.80;7.00;;;;;;;20.22;50.15;99626.91;102535;278;121716;-60
2023/03/23 08:37:52;;;;;;;9.00;7.30;;;;;;;20.12;49.53;99630.17;102395;278;105525;-60
2023/03/23 08:40:33;;;;;;;9.20;6.90;;;;;;;20.07;49.89;99626.59;102528;278;113833;-56
2023/03/23 08:43:15;;;;;;;10.00;7.50;;;;;;;20.43;50.10;99619.90;102525;278;94757;-55
2023/03/23 08:46:00;;;;;;;8.20;6.70;;;;;;;20.18;49.94;99621.92;102566;278;98480;-55
2023/03/23 08:48:43;;;;;;;7.70;6.50;;;;;;;19.79;50.07;99631.94;102506;278;120189;-54
2023/03/23 08:51:23;;;;;;;8.80;6.40;;;;;;;19.36;50.55;99632.90;102517;278;106114;-60
2023/03/23 08:53:58;;;;;;;8.40;6.30;;;;;;;19.00;50.98;99629.98;102539;278;113507;-59
2023/03/23 08:56:41;;;;;;;8.60;6.60;;;;;;;18.85;51.97;99628.88;102504;278;94140;-59
2023/03/23 08:59:17;;;;;;;11.60;6.90;;;;;;;18.87;52.08;99629.60;102550;278;97511;-58
2023/03/23 09:01:57;;;;;;;9.60;6.30;;;;;;;18.76;52.20;99632.96;102502;278;120734;-58
2023/03/23 09:04:31;;;;;;;9.00;6.10;;;;;;;18.61;52.62;99636.39;102533;278;104732;-59
2023/03/23 09:07:09;;;;;;;9.00;5.90;;;;;;;18.53;52.50;99637.73;102517;278;115108;-59
2023/03/23 09:09:50;;;;;;;9.10;5.70;;;;;;;18.36;52.28;99640.44;102516;278;94416;-56
2023/03/23 09:12:27;;;;;;;8.40;5.90;;;;;;;18.16;52.27;99634.75;102483;278;96671;-55
2023/03/23 09:15:05;;;;;;;8.50;6.10;;;;;;;18.00;52.60;99631.75;102523;278;120434;-60
2023/03/23 09:17:46;;;;;;;9.70;5.60;;;;;;;17.88;52.95;99628.92;102529;279;104991;-59
2023/03/23 09:20:25;;;;;;;8.50;5.30;;;;;;;17.85;53.07;99628.39;102523;278;114481;-55
2023/03/23 09:23:00;;;;;;;7.10;4.70;;;;;;;17.88;53.23;99628.75;102543;278;95167;-56
2023/03/23 09:25:36;;;;;;;8.40;5.10;;;;;;;17.79;53.32;99632.26;102553;278;96765;-61
2023/03/23 09:28:11;;;;;;;9.50;5.80;;;;;;;17.59;53.08;99632.43;102558;278;121713;-60
2023/03/23 09:30:45;;;;;;;8.50;5.70;;;;;;;17.55;53.17;99633.08;102519;278;105769;-55
2023/03/23 09:33:23;;;;;;;7.30;5.10;;;;;;;17.58;53.31;99627.95;102522;278;113851;-56
2023/03/23 09:36:07;;;;;;;9.20;5.40;;;;;;;17.64;52.91;99624.42;102552;278;93279;-58
2023/03/23 09:38:45;;;;;;;8.10;5.20;;;;;;;17.64;52.80;99618.63;102534;278;97892;-60
2023/03/23 09:42:03;;;;;;;6.30;5.00;;;;;;;17.63;52.98;99614.69;102554;278;119133;-56
2023/03/23 09:44:58;;;;;;;7.70;4.80;;;;;;;17.75;53.27;99605.05;102578;278;104155;-54
2023/03/23 09:47:40;;;;;;;5.60;4.10;;;;;;;17.97;53.13;99601.04;102507;278;116105;-54
2023/03/23 09:50:23;;;;;;;7.30;4.20;;;;;;;18.17;52.70;99591.90;102564;278;93634;-54
2023/03/23 09:53:06;;;;;;;7.20;4.20;;;;;;;18.51;52.80;99589.00;102521;278;97840;-55
2023/03/23 09:55:43;;;;;;;6.00;4.00;;;;;;;18.72;52.29;99587.29;102525;278;121682;-58
2023/03/23 09:58:27;;;;;;;6.10;4.20;;;;;;;18.96;51.77;99585.98;102502;278;104755;-58
2023/03/23 10:01:04;;;;;;;5.30;4.00;;;;;;;19.22;51.12;99581.61;102521;278;114461;-59
2023/03/23 10:03:42;;;;;;;5.70;3.40;;;;;;;19.64;51.16;99586.55;102538;278;95009;-58
2023/03/23 10:06:24;;;;;;;4.90;3.30;;;;;;;19.79;50.31;99586.16;102589;278;96611;-55
2023/03/23 10:09:06;;;;;;;8.70;3.70;;;;;;;20.01;50.32;99578.92;102518;278;120631;-56
2023/03/23 10:11:57;;;;;;;4.80;3.10;;;;;;;20.06;49.26;99575.42;102495;278;104897;-56
2023/03/23 10:14:51;;;;;;;8.30;3.60;;;;;;;19.97;48.45;99576.83;102520;278;113853;-60
2023/03/23 10:17:36;;;;;;;5.00;3.60;;;;;;;19.92;48.15;99572.77;102511;278;94919;-60
2023/03/23 10:20:32;;;;;;;6.40;3.30;;;;;;;19.90;47.50;99564.15;102542;278;98647;-55
2023/03/23 10:23:35;;;;;;;5.30;3.00;;;;;;;19.87;47.18;99557.23;102502;278;119564;-55
2023/03/23 10:26:25;;;;;;;4.80;3.00;;;;;;;19.92;47.81;99558.29;102530;278;105451;-56
2023/03/23 10:29:11;;;;;;;6.70;3.00;;;;;;;19.96;46.67;99556.21;102530;278;114678;-60
2023/03/23 10:31:51;;;;;;;4.20;3.10;;;;;;;19.90;45.89;99555.16;102532;278;95106;-60
2023/03/23 10:34:33;;;;;;;4.00;2.90;;;;;;;20.20;45.91;99558.90;102565;278;95156;-59
2023/03/23 10:37:19;;;;;;;7.90;3.30;;;;;;;20.45;45.80;99555.86;102541;278;119446;-60
2023/03/23 10:40:00;;;;;;;7.00;3.00;;;;;;;20.70;45.68;99556.85;102586;278;105733;-60
2023/03/23 10:42:40;;;;;;;6.90;3.50;;;;;;;20.84;45.53;99562.70;102499;278;113584;-61
2023/03/23 10:45:22;;;;;;;6.90;3.40;;;;;;;20.88;45.09;99561.45;102565;278;93262;-61
2023/03/23 10:48:08;;;;;;;5.00;3.40;;;;;;;20.93;45.79;99560.48;102559;278;97370;-61
2023/03/23 10:50:46;;;;;;;5.00;3.60;;;;;;;21.12;45.04;99560.33;102546;278;120207;-58
2023/03/23 10:53:29;;;;;;;6.00;3.00;;;;;;;21.33;45.64;99550.31;102536;278;104615;-59
2023/03/23 10:56:25;;;;;;;4.90;3.30;;;;;;;21.53;45.94;99549.41;102511;278;114147;-59
2023/03/23 10:59:14;;;;;;;6.10;3.30;;;;;;;21.54;45.22;99552.27;102516;278;94936;-57
2023/03/23 11:01:55;;;;;;;4.30;3.00;;;;;;;21.23;43.38;99556.45;102433;278;98972;-57
2023/03/23 11:04:34;;;;;;;6.60;3.30;;;;;;;21.08;43.65;99551.31;102510;278;121663;-56
2023/03/23 11:07:26;;;;;;;7.30;2.90;;;;;;;21.00;43.81;99555.22;102490;278;105851;-58
2023/03/23 11:10:17;;;;;;;5.40;3.20;;;;;;;20.94;43.96;99549.23;102556;278;115197;-55
2023/03/23 11:12:57;;;;;;;6.00;3.00;;;;;;;20.84;43.93;99542.17;102528;278;92796;-55
2023/03/23 11:15:41;;;;;;;4.40;2.60;;;;;;;20.84;44.33;99538.39;102576;278;97941;-54
2023/03/23 11:18:23;;;;;;;4.20;2.90;;;;;;;20.76;43.36;99536.36;102405;280;121270;-55
2023/03/23 11:21:01;;;;;;;5.70;3.00;;;;;;;20.81;44.09;99534.10;102561;278;105426;-55
2023/03/23 11:23:42;;;;;;;4.50;2.80;;;;;;;21.03;43.92;99530.65;102485;278;114663;-56
2023/03/23 11:26:22;;;;;;;4.20;2.10;;;;;;;21.04;43.13;99526.27;102564;278;94536;-61
2023/03/23 11:29:04;;;;;;;4.70;2.50;;;;;;;21.19;43.28;99518.73;102565;278;96323;-59
2023/03/23 11:31:45;;;;;;;6.10;2.70;;;;;;;21.33;43.37;99512.02;102525;278;119084;-54
2023/03/23 11:34:22;;;;;;;3.90;2.70;;;;;;;21.43;42.67;99512.52;102575;278;105925;-55
2023/03/23 11:37:04;;;;;;;4.30;2.50;;;;;;;21.34;41.75;99518.83;102497;278;113168;-55
2023/03/23 11:40:00;;;;;;;4.10;2.30;;;;;;;21.28;41.91;99507.30;102524;266;94689;-55
2023/03/23 11:42:49;;;;;;;5.10;2.70;;;;;;;21.29;42.61;99501.86;102516;278;98124;-55
2023/03/23 11:45:40;;;;;;;4.00;2.50;;;;;;;21.11;41.76;99486.05;102490;278;120331;-54
2023/03/23 11:48:33;;;;;;;4.00;2.60;;;;;;;20.90;41.92;99479.34;102548;278;105628;-55
2023/03/23 11:51:18;;;;;;;5.50;2.20;;;;;;;20.94;42.73;99483.17;102527;278;112446;-58
2023/03/23 11:54:02;;;;;;;5.10;2.60;;;;;;;20.84;42.75;99487.04;102517;278;93762;-58
2023/03/23 11:56:39;;;;;;;4.30;2.40;;;;;;;20.66;42.38;99484.01;102527;267;98468;-55
2023/03/23 11:59:18;;;;;;;5.30;2.50;;;;;;;20.55;41.99;99480.95;102566;278;121304;-55
2023/03/23 12:02:07;;;;;;;4.70;2.40;;;;;;;20.52;42.62;99473.05;102510;278;105106;-55
2023/03/23 12:05:25;;;;;;;4.30;2.20;;;;;;;20.59;43.39;99472.21;102498;278;114651;-59
2023/03/23 12:08:26;;;;;;;4.60;2.10;;;;;;;20.57;43.39;99465.52;102489;278;93623;-59
2023/03/23 12:11:12;;;;;;;5.20;2.50;;;;;;;20.60;43.50;99471.88;102568;278;97081;-53
2023/03/23 12:14:11;;;;;;;4.20;2.60;;;;;;;20.64;43.25;99467.94;102502;278;120786;-54
2023/03/23 12:17:07;;;;;;;5.00;2.30;;;;;;;20.71;43.50;99455.52;102545;278;105771;-54
2023/03/23 12:19:55;;;;;;;4.90;2.10;;;;;;;20.87;43.15;99454.25;102504;278;114981;-55
2023/03/23 12:22:48;;;;;;;3.40;2.20;;;;;;;20.89;43.17;99447.04;102530;278;94621;-54
2023/03/23 12:26:22;;;;;;;3.20;2.50;;;;;;;20.84;42.54;99448.33;102553;278;96380;-60
2023/03/23 12:29:26;;;;;;;5.90;3.20;;;;;;;20.58;42.63;99440.71;102569;278;119636;-56